createdAt,value
2019-05-14T00:00:52.410Z,0.00
2019-05-14T00:01:51.767Z,0.00
2019-05-14T00:02:52.158Z,0.00
2019-05-14T00:03:51.796Z,0.00
2019-05-14T00:04:51.736Z,0.00
2019-05-14T00:05:51.946Z,0.00
2019-05-14T00:06:52.024Z,0.00
2019-05-14T00:07:52.229Z,0.00
2019-05-14T00:08:52.314Z,0.00
2019-05-14T00:09:52.017Z,0.00
2019-05-14T00:10:52.161Z,0.00
2019-05-14T00:11:51.661Z,0.00
2019-05-14T00:12:51.651Z,0.00
2019-05-14T00:13:52.161Z,0.00
2019-05-14T00:14:51.809Z,0.00
2019-05-14T00:15:52.175Z,0.00
2019-05-14T00:16:51.606Z,0.00
2019-05-14T00:17:52.265Z,0.00
2019-05-14T00:18:51.587Z,0.00
2019-05-14T00:20:05.831Z,0.00
2019-05-14T00:20:52.600Z,0.00
2019-05-14T00:21:51.554Z,0.00
2019-05-14T00:22:52.215Z,0.00
2019-05-14T00:23:51.567Z,0.00
2019-05-14T00:24:52.116Z,0.00
2019-05-14T00:25:52.293Z,0.00
2019-05-14T00:26:51.793Z,0.00
2019-05-14T00:27:51.861Z,0.00
2019-05-14T00:28:51.477Z,0.00
2019-05-14T00:29:51.926Z,0.00
2019-05-14T00:30:52.430Z,0.00
2019-05-14T00:31:51.742Z,0.00
2019-05-14T00:32:52.022Z,0.00
2019-05-14T00:33:51.463Z,0.00
2019-05-14T00:34:51.783Z,0.00
2019-05-14T00:35:51.639Z,0.00
2019-05-14T00:36:52.495Z,0.00
2019-05-14T00:37:52.094Z,0.00
2019-05-14T00:38:51.518Z,0.00
2019-05-14T00:39:52.066Z,0.00
2019-05-14T00:40:51.570Z,0.00
2019-05-14T00:41:51.437Z,0.00
2019-05-14T00:42:53.241Z,0.00
2019-05-14T00:43:51.566Z,0.00
2019-05-14T00:44:56.946Z,0.00
2019-05-14T00:45:52.291Z,0.00
2019-05-14T00:46:51.792Z,0.00
2019-05-14T00:47:52.480Z,0.00
2019-05-14T00:48:51.640Z,0.00
2019-05-14T00:49:51.910Z,0.00
2019-05-14T00:50:51.802Z,0.00
2019-05-14T00:51:51.994Z,0.00
2019-05-14T00:52:51.784Z,0.00
2019-05-14T00:53:51.697Z,0.00
2019-05-14T00:54:52.217Z,0.00
2019-05-14T00:55:51.778Z,0.00
2019-05-14T00:56:52.145Z,0.00
2019-05-14T00:57:52.198Z,0.00
2019-05-14T00:58:52.187Z,0.00
2019-05-14T00:59:52.189Z,0.00
2019-05-14T01:00:52.577Z,0.00
2019-05-14T01:01:51.600Z,0.00
2019-05-14T01:02:51.768Z,0.00
2019-05-14T01:03:52.064Z,0.00
2019-05-14T01:04:51.576Z,0.00
2019-05-14T01:05:52.147Z,0.00
2019-05-14T01:06:51.274Z,0.00
2019-05-14T01:07:51.516Z,0.00
2019-05-14T01:08:51.844Z,0.00
2019-05-14T01:09:52.346Z,0.00
2019-05-14T01:10:51.368Z,0.00
2019-05-14T01:11:51.397Z,0.00
2019-05-14T01:12:52.027Z,0.00
2019-05-14T01:13:52.183Z,0.00
2019-05-14T01:14:52.846Z,0.00
2019-05-14T01:15:52.318Z,0.00
2019-05-14T01:16:51.500Z,0.00
2019-05-14T01:17:51.629Z,0.00
2019-05-14T01:18:51.346Z,0.00
2019-05-14T01:19:51.437Z,0.00
2019-05-14T01:20:51.906Z,0.00
2019-05-14T01:21:51.179Z,0.00
2019-05-14T01:22:51.573Z,0.00
2019-05-14T01:23:51.385Z,0.00
2019-05-14T01:24:52.237Z,0.00
2019-05-14T01:25:51.683Z,0.00
2019-05-14T01:26:52.233Z,0.00
2019-05-14T01:27:51.814Z,0.00
2019-05-14T01:28:51.358Z,0.00
2019-05-14T01:29:51.384Z,0.00
2019-05-14T01:30:51.847Z,0.00
2019-05-14T01:31:51.981Z,0.00
2019-05-14T01:32:51.310Z,0.00
2019-05-14T01:33:51.515Z,0.00
2019-05-14T01:34:52.267Z,0.00
2019-05-14T01:35:51.390Z,0.00
2019-05-14T01:36:52.821Z,0.00
2019-05-14T01:37:52.173Z,0.00
2019-05-14T01:38:51.332Z,0.00
2019-05-14T01:39:51.982Z,0.00
2019-05-14T01:40:52.409Z,0.00
2019-05-14T01:41:51.655Z,0.00
2019-05-14T01:42:52.265Z,0.00
2019-05-14T01:43:51.277Z,0.00
2019-05-14T01:44:52.007Z,0.00
2019-05-14T01:45:52.358Z,0.00
2019-05-14T01:46:51.267Z,0.00
2019-05-14T01:47:52.064Z,0.00
2019-05-14T01:48:52.143Z,0.00
2019-05-14T01:49:51.577Z,0.00
2019-05-14T01:50:52.068Z,0.00
2019-05-14T01:51:51.203Z,0.00
2019-05-14T01:52:52.099Z,0.00
2019-05-14T01:53:52.100Z,0.00
2019-05-14T01:54:51.554Z,0.00
2019-05-14T01:55:51.997Z,0.00
2019-05-14T01:56:51.495Z,0.00
2019-05-14T01:57:51.831Z,0.00
2019-05-14T01:58:52.263Z,0.00
2019-05-14T01:59:51.626Z,0.00
2019-05-14T02:00:52.361Z,0.00
2019-05-14T02:01:51.774Z,0.00
2019-05-14T02:02:52.496Z,0.00
2019-05-14T02:03:51.751Z,0.00
2019-05-14T02:04:51.340Z,0.00
2019-05-14T02:05:52.043Z,0.00
2019-05-14T02:06:51.488Z,0.00
2019-05-14T02:07:52.427Z,0.00
2019-05-14T02:08:51.461Z,0.00
2019-05-14T02:09:51.762Z,0.00
2019-05-14T02:10:52.429Z,0.00
2019-05-14T02:11:51.854Z,0.00
2019-05-14T02:12:51.519Z,0.00
2019-05-14T02:13:51.888Z,0.00
2019-05-14T02:14:51.213Z,0.00
2019-05-14T02:15:52.008Z,0.00
2019-05-14T02:16:51.202Z,0.00
2019-05-14T02:17:51.894Z,0.00
2019-05-14T02:18:52.273Z,0.00
2019-05-14T02:19:51.459Z,0.00
2019-05-14T02:20:52.162Z,0.00
2019-05-14T02:21:51.455Z,0.00
2019-05-14T02:22:52.285Z,0.00
2019-05-14T02:23:51.393Z,0.00
2019-05-14T02:24:51.955Z,0.00
2019-05-14T02:25:51.882Z,0.00
2019-05-14T02:26:51.431Z,0.00
2019-05-14T02:27:51.934Z,0.00
2019-05-14T02:28:51.363Z,0.00
2019-05-14T02:29:51.922Z,0.00
2019-05-14T02:30:57.518Z,0.00
2019-05-14T02:31:51.185Z,0.00
2019-05-14T02:32:50.186Z,0.00
2019-05-14T02:33:50.731Z,0.00
2019-05-14T02:34:50.350Z,0.00
2019-05-14T02:35:50.144Z,0.00
2019-05-14T02:36:50.111Z,0.00
2019-05-14T02:37:50.614Z,0.00
2019-05-14T02:38:50.090Z,0.00
2019-05-14T02:39:50.463Z,0.00
2019-05-14T02:40:50.070Z,0.00
2019-05-14T02:41:50.161Z,0.00
2019-05-14T02:42:50.132Z,0.00
2019-05-14T02:43:50.557Z,0.00
2019-05-14T02:44:50.027Z,0.00
2019-05-14T02:46:02.046Z,0.00
2019-05-14T02:46:51.006Z,0.00
2019-05-14T02:47:50.534Z,0.00
2019-05-14T02:48:49.987Z,0.00
2019-05-14T02:49:50.425Z,0.00
2019-05-14T02:50:49.991Z,0.00
2019-05-14T02:51:50.572Z,0.00
2019-05-14T02:52:50.038Z,0.00
2019-05-14T02:53:50.056Z,0.00
2019-05-14T02:54:49.923Z,0.00
2019-05-14T02:55:50.105Z,0.00
2019-05-14T02:56:49.917Z,0.00
2019-05-14T02:57:50.330Z,0.00
2019-05-14T02:58:50.186Z,0.00
2019-05-14T02:59:50.512Z,0.00
2019-05-14T03:00:49.865Z,0.00
2019-05-14T03:01:50.520Z,0.00
2019-05-14T03:02:49.869Z,0.00
2019-05-14T03:03:49.832Z,0.00
2019-05-14T03:04:50.194Z,0.00
2019-05-14T03:05:49.897Z,0.00
2019-05-14T03:06:50.100Z,0.00
2019-05-14T03:07:50.286Z,0.00
2019-05-14T03:08:49.830Z,0.00
2019-05-14T03:09:50.424Z,0.00
2019-05-14T03:10:50.591Z,0.00
2019-05-14T03:11:49.747Z,0.00
2019-05-14T03:12:50.362Z,0.00
2019-05-14T03:13:49.837Z,0.00
2019-05-14T03:14:50.198Z,0.00
2019-05-14T03:15:50.089Z,0.00
2019-05-14T03:16:49.961Z,0.00
2019-05-14T03:17:49.757Z,0.00
2019-05-14T03:18:50.332Z,0.00
2019-05-14T03:19:49.879Z,0.00
2019-05-14T03:20:50.421Z,0.00
2019-05-14T03:21:50.270Z,0.00
2019-05-14T03:23:02.576Z,0.00
2019-05-14T03:23:50.610Z,0.00
2019-05-14T03:24:50.259Z,0.00
2019-05-14T03:25:49.696Z,5.62
2019-05-14T03:26:50.190Z,5.62
2019-05-14T03:27:49.974Z,5.62
2019-05-14T03:28:50.041Z,5.62
2019-05-14T03:29:50.139Z,5.62
2019-05-14T03:30:52.569Z,5.62
2019-05-14T03:31:52.600Z,5.62
2019-05-14T03:32:52.874Z,5.62
2019-05-14T03:33:52.604Z,11.25
2019-05-14T03:34:53.227Z,11.25
2019-05-14T03:35:58.044Z,11.25
2019-05-14T03:36:52.852Z,11.25
2019-05-14T03:37:49.989Z,11.25
2019-05-14T03:38:50.204Z,11.25
2019-05-14T03:39:49.598Z,16.88
2019-05-14T03:40:49.762Z,16.88
2019-05-14T03:41:50.057Z,16.88
2019-05-14T03:42:49.419Z,16.88
2019-05-14T03:43:49.793Z,22.50
2019-05-14T03:44:49.413Z,22.50
2019-05-14T03:45:49.839Z,28.12
2019-05-14T03:46:55.233Z,28.12
2019-05-14T03:47:50.811Z,33.75
2019-05-14T03:48:49.526Z,33.75
2019-05-14T03:49:49.988Z,33.75
2019-05-14T03:50:49.770Z,39.38
2019-05-14T03:51:49.944Z,45.00
2019-05-14T03:52:50.035Z,45.00
2019-05-14T03:54:01.346Z,50.62
2019-05-14T03:54:50.274Z,50.62
2019-05-14T03:55:50.531Z,56.25
2019-05-14T03:56:49.822Z,61.88
2019-05-14T03:57:50.009Z,67.50
2019-05-14T03:58:49.568Z,73.12
2019-05-14T03:59:50.172Z,78.75
2019-05-14T04:00:50.309Z,84.38
2019-05-14T04:01:51.085Z,90.00
2019-05-14T04:02:49.278Z,90.00
2019-05-14T04:03:50.319Z,101.25
2019-05-14T04:04:50.322Z,106.88
2019-05-14T04:05:49.868Z,118.12
2019-05-14T04:06:49.875Z,123.75
2019-05-14T04:07:50.326Z,135.00
2019-05-14T04:08:49.828Z,151.88
2019-05-14T04:09:49.662Z,163.12
2019-05-14T04:10:53.663Z,174.38
2019-05-14T04:11:50.355Z,185.62
2019-05-14T04:12:49.448Z,196.88
2019-05-14T04:13:49.808Z,202.50
2019-05-14T04:14:50.242Z,213.75
2019-05-14T04:15:49.933Z,219.38
2019-05-14T04:17:01.437Z,225.00
2019-05-14T04:17:50.471Z,236.25
2019-05-14T04:18:50.464Z,247.50
2019-05-14T04:19:49.884Z,258.75
2019-05-14T04:20:50.023Z,264.38
2019-05-14T04:21:49.268Z,275.62
2019-05-14T04:22:49.975Z,286.88
2019-05-14T04:23:51.031Z,298.12
2019-05-14T04:24:49.889Z,303.75
2019-05-14T04:25:49.871Z,309.38
2019-05-14T04:26:58.158Z,320.62
2019-05-14T04:27:49.921Z,326.25
2019-05-14T04:28:49.820Z,326.25
2019-05-14T04:29:49.809Z,331.88
2019-05-14T04:30:49.409Z,343.12
2019-05-14T04:31:50.203Z,360.00
2019-05-14T04:32:50.591Z,365.62
2019-05-14T04:33:50.035Z,365.62
2019-05-14T04:34:49.886Z,354.38
2019-05-14T04:35:49.272Z,393.75
2019-05-14T04:36:50.263Z,427.50
2019-05-14T04:37:49.614Z,450.00
2019-05-14T04:38:54.111Z,455.62
2019-05-14T04:39:50.597Z,478.12
2019-05-14T04:40:49.488Z,472.50
2019-05-14T04:41:49.740Z,461.25
2019-05-14T04:42:50.376Z,461.25
2019-05-14T04:43:50.031Z,483.75
2019-05-14T04:44:50.252Z,511.88
2019-05-14T04:45:49.719Z,551.25
2019-05-14T04:46:49.538Z,596.25
2019-05-14T04:47:49.779Z,618.75
2019-05-14T04:48:50.610Z,658.12
2019-05-14T04:49:50.511Z,748.12
2019-05-14T04:50:49.679Z,815.62
2019-05-14T04:51:50.213Z,956.25
2019-05-14T04:52:49.590Z,1136.25
2019-05-14T04:53:49.870Z,1271.25
2019-05-14T04:54:49.967Z,1265.62
2019-05-14T04:55:49.560Z,1068.75
2019-05-14T04:56:50.851Z,1378.12
2019-05-14T04:57:50.051Z,1400.62
2019-05-14T04:58:49.645Z,1366.88
2019-05-14T04:59:49.363Z,1327.50
2019-05-14T05:00:49.979Z,1321.88
2019-05-14T05:01:49.530Z,1282.50
2019-05-14T05:02:49.748Z,1288.12
2019-05-14T05:03:50.424Z,1282.50
2019-05-14T05:04:50.772Z,1271.25
2019-05-14T05:05:50.034Z,1260.00
2019-05-14T05:06:49.949Z,1220.62
2019-05-14T05:07:49.389Z,1175.62
2019-05-14T05:08:49.909Z,1158.75
2019-05-14T05:09:50.216Z,1147.50
2019-05-14T05:10:49.496Z,1175.62
2019-05-14T05:11:49.800Z,1119.38
2019-05-14T05:12:49.254Z,1023.75
2019-05-14T05:13:48.788Z,922.50
2019-05-14T05:14:49.279Z,798.75
2019-05-14T05:15:48.804Z,720.00
2019-05-14T05:16:49.115Z,624.38
2019-05-14T05:17:52.616Z,585.00
2019-05-14T05:18:49.241Z,540.00
2019-05-14T05:19:51.471Z,523.12
2019-05-14T05:20:50.589Z,489.38
2019-05-14T05:21:48.349Z,461.25
2019-05-14T05:22:48.654Z,472.50
2019-05-14T05:23:49.305Z,483.75
2019-05-14T05:24:48.592Z,461.25
2019-05-14T05:25:49.059Z,438.75
2019-05-14T05:26:48.660Z,433.12
2019-05-14T05:27:48.813Z,483.75
2019-05-14T05:29:02.864Z,483.75
2019-05-14T05:29:49.263Z,506.25
2019-05-14T05:30:49.083Z,506.25
2019-05-14T05:31:48.877Z,517.50
2019-05-14T05:32:49.448Z,517.50
2019-05-14T05:33:48.954Z,523.12
2019-05-14T05:34:48.433Z,528.75
2019-05-14T05:35:48.675Z,528.75
2019-05-14T05:36:48.655Z,534.38
2019-05-14T05:37:49.095Z,545.62
2019-05-14T05:38:49.101Z,551.25
2019-05-14T05:39:49.123Z,556.88
2019-05-14T05:40:48.661Z,562.50
2019-05-14T05:41:49.184Z,562.50
2019-05-14T05:42:49.031Z,573.75
2019-05-14T05:43:48.492Z,573.75
2019-05-14T05:44:48.460Z,585.00
2019-05-14T05:45:48.654Z,590.62
2019-05-14T05:46:49.452Z,601.88
2019-05-14T05:47:57.812Z,630.00
2019-05-14T05:48:49.046Z,686.25
2019-05-14T05:49:48.752Z,798.75
2019-05-14T05:50:48.579Z,945.00
2019-05-14T05:51:48.475Z,1029.38
2019-05-14T05:52:49.838Z,1040.62
2019-05-14T05:53:48.492Z,1035.00
2019-05-14T05:54:48.946Z,1040.62
2019-05-14T05:55:48.567Z,1012.50
2019-05-14T05:56:48.246Z,1012.50
2019-05-14T05:57:49.273Z,1006.88
2019-05-14T05:58:48.947Z,1085.62
2019-05-14T05:59:48.596Z,1220.62
2019-05-14T06:00:49.782Z,1271.25
2019-05-14T06:01:50.275Z,1260.00
2019-05-14T06:02:48.912Z,1181.25
2019-05-14T06:03:49.176Z,1203.75
2019-05-14T06:04:48.123Z,1254.38
2019-05-14T06:05:49.267Z,1254.38
2019-05-14T06:06:48.226Z,1378.12
2019-05-14T06:07:48.346Z,1524.38
2019-05-14T06:08:49.142Z,1631.25
2019-05-14T06:09:48.426Z,1659.38
2019-05-14T06:10:49.023Z,1715.62
2019-05-14T06:11:48.756Z,1715.62
2019-05-14T06:12:49.065Z,1721.25
2019-05-14T06:13:48.487Z,1878.75
2019-05-14T06:14:48.707Z,2160.00
2019-05-14T06:15:51.453Z,2278.12
2019-05-14T06:16:48.918Z,2188.12
2019-05-14T06:17:49.256Z,1963.12
2019-05-14T06:18:48.361Z,1676.25
2019-05-14T06:19:48.666Z,1411.88
2019-05-14T06:20:49.395Z,1276.88
2019-05-14T06:21:49.089Z,1181.25
2019-05-14T06:22:48.977Z,1102.50
2019-05-14T06:23:48.962Z,1040.62
2019-05-14T06:24:48.523Z,990.00
2019-05-14T06:25:49.086Z,978.75
2019-05-14T06:26:48.966Z,967.50
2019-05-14T06:27:48.567Z,973.12
2019-05-14T06:28:48.828Z,967.50
2019-05-14T06:29:48.965Z,956.25
2019-05-14T06:30:48.378Z,967.50
2019-05-14T06:31:49.527Z,973.12
2019-05-14T06:32:48.778Z,984.38
2019-05-14T06:33:48.598Z,1006.88
2019-05-14T06:34:48.920Z,1029.38
2019-05-14T06:35:48.581Z,1029.38
2019-05-14T06:36:48.532Z,1085.62
2019-05-14T06:37:49.030Z,1310.62
2019-05-14T06:38:49.471Z,1631.25
2019-05-14T06:39:48.442Z,1800.00
2019-05-14T06:40:49.020Z,1541.25
2019-05-14T06:41:48.983Z,1333.12
2019-05-14T06:42:48.597Z,1406.25
2019-05-14T06:43:48.709Z,1670.62
2019-05-14T06:44:49.296Z,1935.00
2019-05-14T06:45:49.509Z,2013.75
2019-05-14T06:46:48.705Z,1991.25
2019-05-14T06:47:48.735Z,2137.50
2019-05-14T06:48:48.558Z,2064.38
2019-05-14T06:49:48.775Z,1681.88
2019-05-14T06:50:50.211Z,1861.88
2019-05-14T06:51:48.946Z,2171.25
2019-05-14T06:52:49.188Z,2334.38
2019-05-14T06:53:49.596Z,2340.00
2019-05-14T06:54:49.688Z,2446.88
2019-05-14T06:55:48.381Z,2446.88
2019-05-14T06:56:48.834Z,2514.38
2019-05-14T06:57:48.018Z,2581.88
2019-05-14T06:58:49.055Z,2520.00
2019-05-14T06:59:48.388Z,2486.25
2019-05-14T07:00:49.331Z,2295.00
2019-05-14T07:01:48.944Z,2272.50
2019-05-14T07:02:49.141Z,2300.62
2019-05-14T07:03:48.901Z,2345.62
2019-05-14T07:04:48.438Z,2351.25
2019-05-14T07:05:49.275Z,2272.50
2019-05-14T07:06:48.534Z,2351.25
2019-05-14T07:07:49.375Z,2424.38
2019-05-14T07:08:48.637Z,2536.88
2019-05-14T07:09:48.803Z,2480.62
2019-05-14T07:10:48.589Z,2351.25
2019-05-14T07:11:49.157Z,2418.75
2019-05-14T07:12:49.711Z,2255.62
2019-05-14T07:13:49.068Z,2205.00
2019-05-14T07:14:48.205Z,2379.38
2019-05-14T07:15:49.003Z,2508.75
2019-05-14T07:16:48.507Z,2829.38
2019-05-14T07:17:48.860Z,3217.50
2019-05-14T07:18:53.016Z,3110.62
2019-05-14T07:19:49.070Z,3172.50
2019-05-14T07:20:48.502Z,2970.00
2019-05-14T07:21:49.218Z,2801.25
2019-05-14T07:22:48.364Z,2986.88
2019-05-14T07:23:49.015Z,3166.88
2019-05-14T07:24:49.493Z,3076.88
2019-05-14T07:25:48.304Z,2857.50
2019-05-14T07:26:49.425Z,2874.38
2019-05-14T07:27:49.016Z,3031.88
2019-05-14T07:28:48.801Z,3155.62
2019-05-14T07:29:49.244Z,3043.12
2019-05-14T07:30:48.548Z,2885.62
2019-05-14T07:31:48.966Z,2733.75
2019-05-14T07:32:48.475Z,2570.62
2019-05-14T07:33:49.419Z,2407.50
2019-05-14T07:34:48.180Z,2446.88
2019-05-14T07:35:48.819Z,2700.00
2019-05-14T07:36:49.113Z,3015.00
2019-05-14T07:37:48.844Z,3155.62
2019-05-14T07:38:48.961Z,3155.62
2019-05-14T07:39:48.675Z,3290.62
2019-05-14T07:40:49.223Z,2953.12
2019-05-14T07:41:48.353Z,2643.75
2019-05-14T07:42:48.718Z,2385.00
2019-05-14T07:43:48.319Z,2227.50
2019-05-14T07:44:48.499Z,2233.12
2019-05-14T07:45:49.110Z,2418.75
2019-05-14T07:46:48.347Z,2728.12
2019-05-14T07:47:49.183Z,2885.62
2019-05-14T07:49:03.921Z,3161.25
2019-05-14T07:49:48.979Z,3301.88
2019-05-14T07:50:51.239Z,3330.00
2019-05-14T07:51:48.165Z,3408.75
2019-05-14T07:52:49.561Z,3363.75
2019-05-14T07:53:48.818Z,3138.75
2019-05-14T07:54:48.123Z,3172.50
2019-05-14T07:55:49.088Z,3217.50
2019-05-14T07:56:49.798Z,3352.50
2019-05-14T07:57:48.104Z,3583.12
2019-05-14T07:58:48.856Z,3470.62
2019-05-14T07:59:48.430Z,3268.12
2019-05-14T08:00:48.958Z,3335.62
2019-05-14T08:01:48.943Z,3414.38
2019-05-14T08:02:48.925Z,3341.25
2019-05-14T08:03:48.931Z,3290.62
2019-05-14T08:04:48.615Z,3369.38
2019-05-14T08:05:48.285Z,3431.25
2019-05-14T08:06:48.612Z,3211.88
2019-05-14T08:07:48.104Z,3431.25
2019-05-14T08:08:48.992Z,3639.38
2019-05-14T08:09:47.963Z,3622.50
2019-05-14T08:10:48.619Z,3757.50
2019-05-14T08:11:48.036Z,3740.62
2019-05-14T08:12:48.499Z,3324.38
2019-05-14T08:13:48.697Z,2998.12
2019-05-14T08:15:08.553Z,3251.25
2019-05-14T08:15:49.044Z,3273.75
2019-05-14T08:16:48.741Z,3279.38
2019-05-14T08:17:48.203Z,3661.88
2019-05-14T08:18:48.484Z,3780.00
2019-05-14T08:19:46.424Z,3386.25
2019-05-14T08:20:48.422Z,3150.00
2019-05-14T08:21:48.129Z,3448.12
2019-05-14T08:22:48.833Z,3375.00
2019-05-14T08:23:48.126Z,3560.62
2019-05-14T08:24:48.725Z,3774.38
2019-05-14T08:25:48.162Z,3605.62
2019-05-14T08:26:48.550Z,2868.75
2019-05-14T08:27:48.206Z,1771.88
2019-05-14T08:28:48.629Z,1040.62
2019-05-14T08:29:48.625Z,961.88
2019-05-14T08:30:46.314Z,838.12
2019-05-14T08:31:48.619Z,793.12
2019-05-14T08:32:46.292Z,748.12
2019-05-14T08:33:48.550Z,753.75
2019-05-14T08:34:48.010Z,753.75
2019-05-14T08:35:48.662Z,663.75
2019-05-14T08:36:48.238Z,669.38
2019-05-14T08:37:46.233Z,641.25
2019-05-14T08:38:47.353Z,630.00
2019-05-14T08:39:48.688Z,613.12
2019-05-14T08:40:48.655Z,613.12
2019-05-14T08:41:56.028Z,624.38
2019-05-14T08:42:49.036Z,630.00
2019-05-14T08:43:48.671Z,382.50
2019-05-14T08:44:50.315Z,613.12
2019-05-14T08:45:48.488Z,686.25
2019-05-14T08:46:48.161Z,669.38
2019-05-14T08:47:48.189Z,641.25
2019-05-14T08:48:46.112Z,652.50
2019-05-14T08:49:49.984Z,669.38
2019-05-14T08:50:48.211Z,652.50
2019-05-14T08:51:46.081Z,579.38
2019-05-14T08:52:48.169Z,410.62
2019-05-14T08:53:49.749Z,461.25
2019-05-14T08:54:46.049Z,489.38
2019-05-14T08:55:48.459Z,500.62
2019-05-14T08:56:46.039Z,444.38
2019-05-14T08:57:48.669Z,433.12
2019-05-14T08:58:46.011Z,438.75
2019-05-14T08:59:48.314Z,461.25
2019-05-14T09:00:48.091Z,590.62
2019-05-14T09:01:58.511Z,601.88
2019-05-14T09:02:48.571Z,585.00
2019-05-14T09:03:48.858Z,568.12
2019-05-14T09:04:52.646Z,579.38
2019-05-14T09:05:48.996Z,585.00
2019-05-14T09:06:45.919Z,596.25
2019-05-14T09:07:45.908Z,630.00
2019-05-14T09:08:45.903Z,680.62
2019-05-14T09:09:45.890Z,613.12
2019-05-14T09:10:45.877Z,551.25
2019-05-14T09:11:47.454Z,455.62
2019-05-14T09:12:45.859Z,551.25
2019-05-14T09:13:45.844Z,461.25
2019-05-14T09:14:48.113Z,410.62
2019-05-14T09:15:45.823Z,393.75
2019-05-14T09:16:47.677Z,405.00
2019-05-14T09:17:48.452Z,399.38
2019-05-14T09:18:45.789Z,506.25
2019-05-14T09:19:58.823Z,562.50
2019-05-14T09:20:48.855Z,551.25
2019-05-14T09:21:45.756Z,551.25
2019-05-14T09:22:45.746Z,573.75
2019-05-14T09:23:48.031Z,585.00
2019-05-14T09:24:45.724Z,556.88
2019-05-14T09:25:49.315Z,568.12
2019-05-14T09:26:48.328Z,607.50
2019-05-14T09:27:45.692Z,545.62
2019-05-14T09:28:48.001Z,466.88
2019-05-14T09:29:45.681Z,416.25
2019-05-14T09:30:45.660Z,472.50
2019-05-14T09:31:45.658Z,596.25
2019-05-14T09:32:45.647Z,579.38
2019-05-14T09:33:45.630Z,461.25
2019-05-14T09:34:48.478Z,568.12
2019-05-14T09:35:45.616Z,433.12
2019-05-14T09:36:45.595Z,438.75
2019-05-14T09:37:45.585Z,534.38
2019-05-14T09:38:45.581Z,489.38
2019-05-14T09:39:45.578Z,511.88
2019-05-14T09:40:45.557Z,495.00
2019-05-14T09:41:45.553Z,495.00
2019-05-14T09:42:45.530Z,500.62
2019-05-14T09:43:45.518Z,483.75
2019-05-14T09:44:45.522Z,478.12
2019-05-14T09:45:45.497Z,331.88
2019-05-14T09:46:45.487Z,348.75
2019-05-14T09:47:50.020Z,354.38
2019-05-14T09:48:48.737Z,444.38
2019-05-14T09:49:45.456Z,438.75
2019-05-14T09:50:45.466Z,444.38
2019-05-14T09:51:45.434Z,461.25
2019-05-14T09:52:45.423Z,461.25
2019-05-14T09:53:45.423Z,461.25
2019-05-14T09:54:45.404Z,455.62
2019-05-14T09:55:45.391Z,438.75
2019-05-14T09:56:45.394Z,354.38
2019-05-14T09:57:45.372Z,466.88
2019-05-14T09:58:45.361Z,450.00
2019-05-14T09:59:45.359Z,450.00
2019-05-14T10:00:45.337Z,455.62
2019-05-14T10:01:45.329Z,489.38
2019-05-14T10:02:45.338Z,478.12
2019-05-14T10:03:45.331Z,483.75
2019-05-14T10:04:45.295Z,483.75
2019-05-14T10:05:45.305Z,483.75
2019-05-14T10:06:45.276Z,489.38
2019-05-14T10:07:45.269Z,466.88
2019-05-14T10:08:45.261Z,320.62
2019-05-14T10:09:45.242Z,315.00
2019-05-14T10:10:45.233Z,292.50
2019-05-14T10:11:45.242Z,320.62
2019-05-14T10:12:55.965Z,331.88
2019-05-14T10:13:48.230Z,298.12
2019-05-14T10:14:45.208Z,517.50
2019-05-14T10:15:45.178Z,466.88
2019-05-14T10:16:45.168Z,365.62
2019-05-14T10:17:45.171Z,585.00
2019-05-14T10:18:45.147Z,528.75
2019-05-14T10:19:45.143Z,573.75
2019-05-14T10:20:46.232Z,607.50
2019-05-14T10:21:45.115Z,613.12
2019-05-14T10:22:45.102Z,641.25
2019-05-14T10:23:45.103Z,511.88
2019-05-14T10:24:45.081Z,427.50
2019-05-14T10:25:45.070Z,461.25
2019-05-14T10:26:45.068Z,826.88
2019-05-14T10:27:45.049Z,765.00
2019-05-14T10:28:45.038Z,973.12
2019-05-14T10:29:45.037Z,1816.88
2019-05-14T10:30:45.016Z,478.12
2019-05-14T10:31:45.005Z,5253.75
2019-05-14T10:32:45.003Z,5355.00
2019-05-14T10:33:44.983Z,3555.00
2019-05-14T10:34:44.974Z,2936.25
2019-05-14T10:35:44.972Z,5580.00
2019-05-14T10:36:44.952Z,2598.75
2019-05-14T10:37:44.941Z,5400.00
2019-05-14T10:38:44.964Z,3240.00
2019-05-14T10:39:44.922Z,5439.38
2019-05-14T10:40:44.910Z,4950.00
2019-05-14T10:41:44.912Z,4505.62
2019-05-14T10:42:44.887Z,2103.75
2019-05-14T10:43:44.876Z,382.50
2019-05-14T10:44:44.881Z,292.50
2019-05-14T10:45:44.855Z,275.62
2019-05-14T10:46:44.844Z,270.00
2019-05-14T10:47:44.845Z,264.38
2019-05-14T10:48:44.832Z,264.38
2019-05-14T10:49:44.813Z,270.00
2019-05-14T10:50:56.106Z,281.25
2019-05-14T10:51:47.889Z,286.88
2019-05-14T10:52:44.780Z,292.50
2019-05-14T10:53:44.781Z,292.50
2019-05-14T10:54:55.354Z,298.12
2019-05-14T10:55:45.748Z,281.25
2019-05-14T10:56:44.780Z,264.38
2019-05-14T10:57:44.728Z,253.12
2019-05-14T10:58:44.717Z,241.88
2019-05-14T10:59:44.714Z,241.88
2019-05-14T11:00:44.703Z,253.12
2019-05-14T11:01:44.684Z,247.50
2019-05-14T11:02:44.687Z,241.88
2019-05-14T11:03:44.662Z,247.50
2019-05-14T11:04:44.650Z,241.88
2019-05-14T11:05:44.653Z,241.88
2019-05-14T11:06:44.629Z,258.75
2019-05-14T11:07:44.617Z,219.38
2019-05-14T11:08:44.617Z,236.25
2019-05-14T11:09:44.596Z,241.88
2019-05-14T11:10:44.590Z,247.50
2019-05-14T11:11:44.671Z,241.88
2019-05-14T11:12:44.566Z,253.12
2019-05-14T11:13:44.553Z,253.12
2019-05-14T11:14:44.553Z,253.12
2019-05-14T11:15:44.531Z,247.50
2019-05-14T11:16:44.522Z,270.00
2019-05-14T11:17:44.529Z,258.75
2019-05-14T11:18:44.502Z,264.38
2019-05-14T11:19:44.490Z,230.62
2019-05-14T11:20:44.495Z,241.88
2019-05-14T11:21:44.468Z,253.12
2019-05-14T11:22:44.460Z,270.00
2019-05-14T11:23:44.456Z,258.75
2019-05-14T11:24:44.444Z,241.88
2019-05-14T11:25:44.426Z,247.50
2019-05-14T11:26:44.488Z,298.12
2019-05-14T11:27:44.405Z,264.38
2019-05-14T11:28:44.399Z,253.12
2019-05-14T11:29:44.394Z,253.12
2019-05-14T11:30:44.372Z,253.12
2019-05-14T11:31:44.363Z,230.62
2019-05-14T11:32:44.379Z,219.38
2019-05-14T11:33:44.346Z,202.50
2019-05-14T11:34:44.332Z,208.12
2019-05-14T11:35:44.330Z,208.12
2019-05-14T11:36:44.309Z,208.12
2019-05-14T11:37:44.310Z,219.38
2019-05-14T11:38:44.302Z,225.00
2019-05-14T11:39:44.277Z,253.12
2019-05-14T11:40:44.267Z,286.88
2019-05-14T11:41:44.270Z,303.75
2019-05-14T11:42:44.246Z,286.88
2019-05-14T11:43:44.237Z,275.62
2019-05-14T11:44:44.236Z,258.75
2019-05-14T11:45:44.217Z,264.38
2019-05-14T11:46:56.284Z,253.12
2019-05-14T11:47:45.208Z,247.50
2019-05-14T11:48:44.183Z,275.62
2019-05-14T11:49:44.173Z,253.12
2019-05-14T11:50:44.180Z,281.25
2019-05-14T11:52:01.087Z,275.62
2019-05-14T11:52:45.140Z,275.62
2019-05-14T11:53:44.141Z,270.00
2019-05-14T11:54:44.119Z,331.88
2019-05-14T11:55:44.108Z,309.38
2019-05-14T11:56:44.119Z,298.12
2019-05-14T11:57:44.084Z,253.12
2019-05-14T11:58:44.073Z,219.38
2019-05-14T11:59:44.073Z,230.62
2019-05-14T12:00:44.053Z,275.62
2019-05-14T12:01:44.040Z,230.62
2019-05-14T12:02:44.049Z,236.25
2019-05-14T12:03:44.018Z,202.50
2019-05-14T12:04:44.008Z,213.75
2019-05-14T12:05:44.008Z,213.75
2019-05-14T12:06:43.986Z,247.50
2019-05-14T12:07:43.976Z,253.12
2019-05-14T12:08:43.973Z,258.75
2019-05-14T12:09:43.966Z,253.12
2019-05-14T12:10:43.947Z,253.12
2019-05-14T12:11:43.944Z,270.00
2019-05-14T12:12:43.922Z,270.00
2019-05-14T12:13:43.934Z,270.00
2019-05-14T12:14:43.910Z,286.88
2019-05-14T12:15:43.894Z,292.50
2019-05-14T12:16:43.880Z,270.00
2019-05-14T12:17:43.881Z,275.62
2019-05-14T12:18:43.858Z,286.88
2019-05-14T12:19:44.284Z,281.25
2019-05-14T12:20:43.858Z,281.25
2019-05-14T12:21:58.965Z,258.75
2019-05-14T12:22:44.824Z,241.88
2019-05-14T12:23:43.834Z,219.38
2019-05-14T12:24:43.793Z,258.75
2019-05-14T12:25:43.782Z,230.62
2019-05-14T12:26:43.788Z,236.25
2019-05-14T12:27:43.762Z,236.25
2019-05-14T12:28:43.761Z,236.25
2019-05-14T12:29:43.742Z,236.25
2019-05-14T12:30:43.728Z,253.12
2019-05-14T12:31:43.719Z,264.38
2019-05-14T12:32:43.719Z,270.00
2019-05-14T12:33:43.696Z,270.00
2019-05-14T12:34:43.695Z,281.25
2019-05-14T12:35:43.676Z,292.50
2019-05-14T12:36:43.663Z,315.00
2019-05-14T12:37:43.653Z,326.25